Time;durP1;ratioP1;P1;durP2;ratioP2;P2;SDS_P1;SDS_P2;PMS_P1;PMS_P2;Temp;Humidity;BMP_temperature;BMP_pressure;BME280_temperature;BME280_humidity;BME280_pressure;Samples;Min_cycle;Max_cycle;Signal;HPM_P1;HPM_P2
2022/05/10 00:00:07;;;;;;;5.00;2.73;;;;;;;16.67;60.57;100607.91;5164550;27;19915;-80
2022/05/10 00:02:33;;;;;;;6.18;2.95;;;;;;;16.82;60.01;100612.03;5163207;27;20035;-80
2022/05/10 00:04:59;;;;;;;4.47;2.40;;;;;;;16.93;59.10;100611.97;5163238;27;20034;-80
2022/05/10 00:07:27;;;;;;;5.13;2.70;;;;;;;16.96;58.82;100616.94;5162874;27;20431;-79
2022/05/10 00:09:52;;;;;;;4.20;2.40;;;;;;;17.07;57.82;100611.69;5161568;27;20046;-80
2022/05/10 00:12:18;;;;;;;5.25;2.58;;;;;;;17.16;57.83;100612.97;5162312;27;20071;-79
2022/05/10 00:14:43;;;;;;;;;;;;;;;17.22;57.07;100607.34;5162565;27;20031;-79
2022/05/10 00:17:17;;;;;;;4.57;2.27;;;;;;;17.34;56.60;100610.88;5162531;27;19963;-80
2022/05/10 00:19:42;;;;;;;5.28;2.28;;;;;;;17.48;55.86;100597.75;5163731;27;20027;-79
2022/05/10 00:22:08;;;;;;;;;;;;;;;17.63;55.26;100598.00;5144983;27;20105;-79
2022/05/10 00:24:33;;;;;;;4.07;1.97;;;;;;;17.54;55.43;100595.94;5163008;27;20318;-80
2022/05/10 00:27:00;;;;;;;;;;;;;;;17.59;55.37;100596.84;5163740;27;20038;-80
2022/05/10 00:29:25;;;;;;;5.73;1.70;;;;;;;17.56;55.25;100591.88;5163528;27;19918;-79
2022/05/10 00:31:51;;;;;;;;;;;;;;;17.71;54.94;100590.53;5163433;27;20031;-79
2022/05/10 00:34:18;;;;;;;4.47;1.97;;;;;;;17.75;54.31;100595.22;5162499;27;20384;-79
2022/05/10 00:36:44;;;;;;;4.88;2.17;;;;;;;17.84;54.27;100585.56;5162616;27;20258;-79
2022/05/10 00:39:10;;;;;;;6.00;2.13;;;;;;;17.80;54.54;100589.03;5162509;27;20057;-80
2022/05/10 00:41:58;;;;;;;3.63;1.98;;;;;;;17.74;54.59;100584.56;5162554;27;20069;-80
2022/05/10 00:44:30;;;;;;;4.07;1.95;;;;;;;17.76;54.66;100590.59;5161775;27;20467;-80
2022/05/10 00:47:08;;;;;;;4.70;2.50;;;;;;;17.78;54.51;100583.84;5162136;27;20449;-79
2022/05/10 00:49:56;;;;;;;5.18;2.50;;;;;;;17.74;54.72;100587.28;5162159;27;20384;-80
2022/05/10 00:52:30;;;;;;;5.35;2.88;;;;;;;17.67;55.03;100587.47;5112207;27;20050;-79
2022/05/10 00:55:08;;;;;;;5.28;2.50;;;;;;;17.65;55.33;100581.44;5143791;27;20029;-80
2022/05/10 00:57:42;;;;;;;3.85;1.90;;;;;;;17.68;55.10;100580.97;5162956;27;20046;-80
2022/05/10 01:00:10;;;;;;;4.97;2.30;;;;;;;17.55;55.67;100582.09;5162556;27;20090;-80
2022/05/10 01:03:01;;;;;;;5.10;2.67;;;;;;;17.57;55.63;100573.63;5161821;27;20075;-80
2022/05/10 01:05:44;;;;;;;6.68;3.28;;;;;;;17.55;55.87;100573.09;5161729;27;20473;-79
2022/05/10 01:08:22;;;;;;;8.18;2.35;;;;;;;17.45;56.10;100571.00;5160123;27;20461;-80
2022/05/10 01:10:56;;;;;;;5.65;2.70;;;;;;;17.39;56.49;100568.41;5161075;27;20027;-80
2022/05/10 01:13:30;;;;;;;4.60;2.63;;;;;;;17.43;56.25;100569.59;5161193;27;20027;-80
2022/05/10 01:16:03;;;;;;;4.82;2.28;;;;;;;17.52;56.01;100565.41;5162302;27;20029;-79
2022/05/10 01:18:28;;;;;;;4.82;2.67;;;;;;;17.45;56.27;100578.34;5161496;27;20066;-80
2022/05/10 01:20:57;;;;;;;;;;;;;;;17.45;56.49;100571.00;5163061;27;20365;-80
2022/05/10 01:23:58;;;;;;;4.70;2.10;;;;;;;17.43;56.64;100570.41;5162447;27;19919;-80
2022/05/10 01:26:49;;;;;;;4.30;2.30;;;;;;;17.42;56.47;100557.03;5161283;27;20023;-80
2022/05/10 01:29:23;;;;;;;6.70;2.25;;;;;;;17.43;56.79;100553.25;5137303;27;20148;-79
2022/05/10 01:34:43;;;;;;;4.47;2.30;;;;;;;17.31;56.97;100553.31;5160681;27;20046;-79
2022/05/10 01:37:14;;;;;;;5.28;2.17;;;;;;;17.38;57.24;100551.25;5162130;27;20034;-80
2022/05/10 01:39:42;;;;;;;5.22;2.90;;;;;;;17.41;56.83;100553.47;5161037;27;20087;-79
2022/05/10 01:42:21;;;;;;;4.53;2.35;;;;;;;17.27;57.90;100542.09;5161696;27;20453;-79
2022/05/10 01:45:04;;;;;;;5.88;2.45;;;;;;;17.21;57.57;100550.41;5161714;27;20035;-80
2022/05/10 01:47:35;;;;;;;4.70;2.20;;;;;;;17.20;57.77;100546.84;5161197;27;20027;-79
2022/05/10 01:50:06;;;;;;;5.03;2.47;;;;;;;17.18;57.91;100545.47;5160839;27;20067;-80
2022/05/10 01:52:49;;;;;;;4.88;2.70;;;;;;;17.19;57.88;100534.34;5161095;27;20034;-80
2022/05/10 01:55:44;;;;;;;5.68;2.60;;;;;;;17.14;58.21;100538.88;5160111;27;20023;-81
2022/05/10 01:58:13;;;;;;;4.55;2.15;;;;;;;17.24;57.91;100544.47;5161223;27;20047;-79
2022/05/10 02:00:41;;;;;;;4.80;2.42;;;;;;;17.19;57.99;100538.97;5161270;27;20030;-80
2022/05/10 02:03:56;;;;;;;4.72;2.50;;;;;;;17.11;58.12;100533.91;5161461;27;20026;-79
2022/05/10 02:06:46;;;;;;;5.05;2.58;;;;;;;17.24;57.85;100541.75;5116479;27;20047;-80
2022/05/10 02:09:25;;;;;;;7.32;2.63;;;;;;;17.26;57.51;100531.44;5160968;27;20027;-80
2022/05/10 02:11:57;;;;;;;5.55;2.40;;;;;;;17.17;57.71;100538.38;5161083;27;20075;-80
2022/05/10 02:14:38;;;;;;;5.85;2.50;;;;;;;17.17;57.44;100538.38;5142963;27;20038;-81
2022/05/10 02:17:09;;;;;;;5.70;2.67;;;;;;;17.10;57.32;100541.25;5161351;27;20030;-79
2022/05/10 02:19:45;;;;;;;5.13;2.65;;;;;;;17.17;57.35;100541.94;5161193;27;20037;-80
2022/05/10 02:22:16;;;;;;;5.45;3.00;;;;;;;17.23;56.47;100551.81;5160683;27;20532;-79
2022/05/10 02:24:46;;;;;;;5.65;2.53;;;;;;;17.16;56.54;100544.88;5142691;27;20034;-81
2022/05/10 02:27:32;;;;;;;4.65;2.30;;;;;;;17.26;56.17;100543.16;5161156;27;20090;-80
2022/05/10 02:30:08;;;;;;;5.95;2.80;;;;;;;17.11;56.59;100544.78;5143080;27;20362;-80
2022/05/10 02:35:32;;;;;;;4.72;2.30;;;;;;;17.13;56.46;100542.66;5160788;27;20076;-80
2022/05/10 02:37:58;;;;;;;4.95;2.47;;;;;;;16.99;56.89;100545.69;5141562;27;20143;-79
2022/05/10 02:40:23;;;;;;;6.50;2.43;;;;;;;17.00;56.52;100543.78;5160565;27;20419;-79
2022/05/10 02:42:48;;;;;;;;;;;;;;;17.01;56.76;100531.84;5160792;27;20038;-79
2022/05/10 02:45:18;;;;;;;5.65;2.45;;;;;;;17.07;56.40;100532.72;5160465;27;19907;-80
2022/05/10 02:47:45;;;;;;;5.10;2.78;;;;;;;16.99;56.76;100529.34;5158353;27;20027;-79
2022/05/10 02:50:24;;;;;;;4.63;2.13;;;;;;;17.00;56.89;100522.84;5158054;27;20031;-79
2022/05/10 02:52:50;;;;;;;5.68;2.65;;;;;;;16.95;56.80;100522.75;5158059;27;20031;-80
2022/05/10 02:55:38;;;;;;;4.95;2.50;;;;;;;16.91;57.50;100518.03;5158064;27;20027;-80
2022/05/10 02:58:12;;;;;;;4.97;2.65;;;;;;;16.81;57.46;100512.41;5156582;27;20042;-80
2022/05/10 03:00:37;;;;;;;7.38;2.80;;;;;;;16.84;57.35;100515.44;5158164;27;20080;-80
2022/05/10 03:03:09;;;;;;;5.20;2.63;;;;;;;16.89;57.50;100510.09;5157770;27;20023;-78
2022/05/10 03:05:35;;;;;;;5.55;2.50;;;;;;;16.77;58.03;100492.19;5158027;27;20272;-79
2022/05/10 03:08:00;;;;;;;5.70;2.70;;;;;;;16.85;57.91;100499.94;5157226;27;20086;-79
2022/05/10 03:10:25;;;;;;;;;;;;;;;16.72;57.94;100498.34;5157420;27;20305;-79
2022/05/10 03:12:51;;;;;;;4.70;2.50;;;;;;;16.77;58.14;100494.91;5157826;27;20277;-79
2022/05/10 03:15:16;;;;;;;;;;;;;;;16.67;58.46;100492.81;5157667;27;20019;-79
2022/05/10 03:17:41;;;;;;;4.93;2.45;;;;;;;16.72;58.59;100494.81;5157116;27;19915;-80
2022/05/10 03:20:07;;;;;;;;;;;;;;;16.75;58.41;100492.44;5158008;27;20122;-79
2022/05/10 03:22:32;;;;;;;6.03;2.40;;;;;;;16.67;58.67;100490.91;5157335;27;19915;-79
2022/05/10 03:24:57;;;;;;;;;;;;;;;16.67;58.65;100490.06;5158068;27;20030;-80
2022/05/10 03:27:22;;;;;;;7.40;3.03;;;;;;;16.71;58.70;100493.97;5157695;27;20039;-80
2022/05/10 03:29:48;;;;;;;;;;;;;;;16.64;58.78;100490.59;5141793;27;20026;-80
2022/05/10 03:32:14;;;;;;;5.93;2.80;;;;;;;16.65;58.91;100486.81;5161381;27;20364;-79
2022/05/10 03:34:54;;;;;;;6.20;2.92;;;;;;;16.52;59.46;100489.75;5164774;27;20496;-81
2022/05/10 03:37:24;;;;;;;6.35;2.97;;;;;;;16.57;59.21;100482.53;5164406;27;20109;-80
2022/05/10 03:39:49;;;;;;;5.30;3.08;;;;;;;16.45;59.71;100480.94;5164015;27;20031;-79
2022/05/10 03:42:15;;;;;;;6.38;3.13;;;;;;;16.47;59.65;100487.78;5163982;27;20026;-80
2022/05/10 03:44:40;;;;;;;;;;;;;;;16.36;60.22;100483.19;5162697;27;20027;-80
2022/05/10 03:47:07;;;;;;;6.40;3.00;;;;;;;16.45;60.11;100479.03;5161755;27;19907;-80
2022/05/10 03:49:33;;;;;;;5.15;2.92;;;;;;;16.40;60.33;100478.94;5161427;27;20468;-80
2022/05/10 03:51:58;;;;;;;7.18;2.80;;;;;;;16.27;60.67;100474.59;5162700;27;20031;-81
2022/05/10 03:54:24;;;;;;;8.45;3.65;;;;;;;16.36;60.29;100468.78;5162670;27;20030;-80
2022/05/10 03:56:51;;;;;;;6.28;3.03;;;;;;;16.29;61.01;100474.38;5163309;27;20043;-80
2022/05/10 03:59:17;;;;;;;5.18;2.95;;;;;;;16.31;60.50;100473.03;5163715;27;20031;-81
2022/05/10 04:01:44;;;;;;;8.05;3.53;;;;;;;16.45;60.37;100470.88;5163019;27;20027;-80
2022/05/10 04:04:09;;;;;;;4.95;2.60;;;;;;;16.37;60.44;100471.25;5164113;27;20030;-81
2022/05/10 04:06:34;;;;;;;7.50;3.08;;;;;;;16.30;60.61;100468.66;5165311;27;20060;-80
2022/05/10 04:08:59;;;;;;;;;;;;;;;16.25;60.93;100471.31;5165541;27;20035;-81
2022/05/10 04:11:25;;;;;;;5.27;2.80;;;;;;;16.24;61.25;100464.22;5146705;27;19911;-81
2022/05/10 04:13:50;;;;;;;;;;;;;;;16.27;60.87;100463.72;5171932;27;20057;-80
2022/05/10 04:16:16;;;;;;;5.13;2.70;;;;;;;16.23;61.29;100465.28;5171620;27;19918;-80
2022/05/10 04:18:42;;;;;;;5.75;2.78;;;;;;;16.27;60.78;100463.72;5172440;27;20361;-80
2022/05/10 04:21:08;;;;;;;4.72;2.75;;;;;;;16.20;61.19;100464.91;5175681;27;20027;-81
2022/05/10 04:23:33;;;;;;;;;;;;;;;16.19;61.08;100465.97;5176220;27;20043;-81
2022/05/10 04:26:07;;;;;;;5.38;2.70;;;;;;;16.18;61.31;100467.06;5157939;27;19910;-80
2022/05/10 04:28:35;;;;;;;5.28;2.95;;;;;;;16.17;61.26;100468.94;5172457;27;20042;-80
2022/05/10 04:31:00;;;;;;;5.95;3.15;;;;;;;16.17;61.18;100470.84;5154281;27;20030;-80
2022/05/10 04:33:26;;;;;;;5.43;3.10;;;;;;;16.18;61.24;100469.78;5152560;27;20038;-80
2022/05/10 04:35:52;;;;;;;5.13;2.50;;;;;;;16.24;61.19;100464.22;5174448;27;20031;-81
2022/05/10 04:38:17;;;;;;;5.20;3.00;;;;;;;16.23;61.04;100462.56;5155802;27;20031;-80
2022/05/10 04:43:28;;;;;;;5.35;2.72;;;;;;;16.28;60.60;100464.56;5163734;27;20312;-82
2022/05/10 04:45:53;;;;;;;4.87;2.60;;;;;;;16.37;60.66;100470.44;5166587;27;20031;-82
2022/05/10 04:48:19;;;;;;;5.53;2.75;;;;;;;16.46;60.35;100469.00;5163379;27;20272;-82
2022/05/10 04:50:44;;;;;;;;;;;;;;;16.41;60.45;100466.16;5144009;27;20082;-81
2022/05/10 04:53:09;;;;;;;4.33;2.53;;;;;;;16.28;60.78;100470.00;5161862;27;19907;-81
2022/05/10 04:55:35;;;;;;;;;;;;;;;16.47;60.49;100467.91;5161913;27;20018;-79
2022/05/10 04:58:00;;;;;;;5.23;2.57;;;;;;;16.40;60.92;100468.06;5161835;27;19915;-82
2022/05/10 05:00:26;;;;;;;5.22;2.63;;;;;;;16.49;60.28;100473.91;5143738;27;20452;-82
2022/05/10 05:02:51;;;;;;;;;;;;;;;16.40;60.57;100469.94;5145061;27;20046;-81
2022/05/10 05:05:18;;;;;;;6.45;2.70;;;;;;;16.50;60.12;100473.69;5141591;27;20229;-82
2022/05/10 05:07:43;;;;;;;7.05;3.50;;;;;;;16.50;60.23;100472.84;5160223;27;20562;-82
2022/05/10 05:10:10;;;;;;;5.45;2.88;;;;;;;16.62;59.72;100465.50;5162491;27;20133;-81
2022/05/10 05:12:36;;;;;;;;;;;;;;;16.67;59.48;100474.59;5162999;27;20026;-81
2022/05/10 05:15:04;;;;;;;6.40;2.95;;;;;;;16.59;61.30;100477.69;5162579;27;19932;-80
2022/05/10 05:17:30;;;;;;;7.85;2.92;;;;;;;16.75;59.27;100481.53;5161967;27;20027;-80
2022/05/10 05:19:55;;;;;;;5.17;2.80;;;;;;;16.76;59.23;100483.19;5143628;27;20051;-80
2022/05/10 05:22:20;;;;;;;5.80;3.20;;;;;;;16.82;59.35;100478.69;5161687;27;20374;-81
2022/05/10 05:24:46;;;;;;;6.45;3.03;;;;;;;16.74;59.69;100479.06;5160918;27;20737;-80
2022/05/10 05:27:11;;;;;;;;;;;;;;;16.69;59.78;100484.41;5161793;27;20045;-81
2022/05/10 05:29:36;;;;;;;6.93;3.00;;;;;;;16.60;60.17;100484.78;5161075;27;19998;-81
2022/05/10 05:32:04;;;;;;;;;;;;;;;16.58;60.37;100480.63;5142380;27;20039;-80
2022/05/10 05:34:30;;;;;;;7.43;2.88;;;;;;;16.78;59.84;100480.22;5159559;27;19932;-81
2022/05/10 05:39:39;;;;;;;5.55;2.88;;;;;;;16.81;59.68;100485.19;5159168;27;20048;-80
2022/05/10 05:42:05;;;;;;;5.37;3.07;;;;;;;16.77;60.04;100484.03;5159020;27;20050;-80
2022/05/10 05:44:30;;;;;;;6.80;3.15;;;;;;;16.93;59.20;100488.66;5158980;27;20252;-80
2022/05/10 05:46:57;;;;;;;;;;;;;;;16.83;59.54;100489.31;5160145;27;20027;-80
2022/05/10 05:49:25;;;;;;;7.57;2.83;;;;;;;16.92;59.65;100489.72;5158803;27;19925;-79
2022/05/10 05:51:55;;;;;;;7.10;3.20;;;;;;;16.94;59.42;100496.59;5158922;27;20035;-79
2022/05/10 05:54:20;;;;;;;7.03;3.33;;;;;;;16.87;59.78;100487.75;5157699;27;20026;-79
2022/05/10 05:56:45;;;;;;;6.18;3.17;;;;;;;16.98;59.63;100483.31;5158302;27;20055;-79
2022/05/10 05:59:11;;;;;;;;;;;;;;;16.94;59.63;100485.69;5158059;27;20030;-78
2022/05/10 06:01:36;;;;;;;8.70;3.07;;;;;;;17.02;59.28;100487.19;5157821;27;19911;-80
2022/05/10 06:04:01;;;;;;;;;;;;;;;17.06;59.31;100479.34;5158542;27;20475;-79
2022/05/10 06:06:26;;;;;;;6.05;3.10;;;;;;;17.01;59.55;100488.28;5139981;27;19917;-79
2022/05/10 06:08:52;;;;;;;;;;;;;;;17.20;59.16;100486.13;5159368;27;20030;-78
2022/05/10 06:11:17;;;;;;;5.80;2.80;;;;;;;17.37;58.31;100483.44;5158199;27;19911;-77
2022/05/10 06:13:42;;;;;;;;;;;;;;;17.34;58.52;100482.84;5139653;27;20266;-78
2022/05/10 06:16:08;;;;;;;8.70;2.97;;;;;;;17.34;58.47;100480.13;5158578;27;20462;-78
2022/05/10 06:18:33;;;;;;;;;;;;;;;17.34;59.07;100482.03;5158610;27;20026;-77
2022/05/10 06:20:59;;;;;;;5.47;2.80;;;;;;;17.22;59.17;100483.97;5158332;27;19956;-78
2022/05/10 06:23:24;;;;;;;;;;;;;;;17.26;59.28;100487.88;5158336;27;20110;-77
2022/05/10 06:25:49;;;;;;;5.60;2.70;;;;;;;17.48;58.54;100479.78;5158814;27;19933;-78
2022/05/10 06:28:15;;;;;;;;;;;;;;;17.55;58.33;100475.00;5157806;27;20117;-77
2022/05/10 06:30:40;;;;;;;8.25;3.33;;;;;;;17.55;58.25;100478.56;5157481;27;19927;-78
2022/05/10 06:33:05;;;;;;;;;;;;;;;17.63;58.38;100480.84;5158599;27;20103;-78
2022/05/10 06:35:31;;;;;;;6.77;2.80;;;;;;;17.51;58.53;100482.00;5156840;27;20009;-79
2022/05/10 06:40:40;;;;;;;4.60;2.55;;;;;;;17.79;57.79;100475.63;5157223;27;19932;-78
2022/05/10 06:43:06;;;;;;;;;;;;;;;17.81;57.50;100463.41;5158292;27;20031;-77
2022/05/10 06:45:32;;;;;;;6.53;3.08;;;;;;;17.69;58.24;100473.59;5157541;27;19960;-78
2022/05/10 06:47:57;;;;;;;;;;;;;;;17.92;57.39;100465.19;5157295;27;20083;-78
2022/05/10 06:50:24;;;;;;;5.70;3.10;;;;;;;17.95;57.55;100464.69;5156865;27;20292;-77
2022/05/10 06:52:52;;;;;;;6.60;3.25;;;;;;;18.25;56.66;100453.38;5155526;27;20030;-78
2022/05/10 06:55:18;;;;;;;5.25;2.65;;;;;;;18.69;55.53;100456.03;5138681;27;20338;-77
2022/05/10 06:57:43;;;;;;;;;;;;;;;18.67;55.73;100453.56;5157730;27;20053;-78
2022/05/10 07:00:10;;;;;;;6.40;2.63;;;;;;;18.96;54.65;100448.69;5160135;27;19921;-77
2022/05/10 07:02:36;;;;;;;5.07;2.40;;;;;;;18.80;55.36;100443.34;5160774;27;20098;-77
2022/05/10 07:05:01;;;;;;;4.65;2.47;;;;;;;19.06;54.37;100442.47;5157936;27;20488;-77
2022/05/10 07:07:27;;;;;;;;;;;;;;;18.96;55.03;100447.84;5160837;27;20095;-78
2022/05/10 07:09:52;;;;;;;4.15;2.35;;;;;;;19.10;54.59;100437.31;5164243;27;20257;-77
2022/05/10 07:12:18;;;;;;;;;;;;;;;19.30;53.96;100441.03;5163699;27;20042;-77
2022/05/10 07:14:45;;;;;;;6.77;2.83;;;;;;;19.45;53.65;100434.03;5162861;27;19911;-77
2022/05/10 07:17:11;;;;;;;4.43;2.40;;;;;;;19.35;53.35;100432.84;5162247;27;20023;-77
2022/05/10 07:19:36;;;;;;;6.90;2.90;;;;;;;19.42;52.91;100432.63;5163164;27;20041;-78
2022/05/10 07:22:01;;;;;;;;;;;;;;;19.52;52.76;100440.13;5167610;27;20037;-77
2022/05/10 07:24:26;;;;;;;6.03;3.37;;;;;;;19.76;52.28;100436.69;5167344;27;19914;-78
2022/05/10 07:26:52;;;;;;;;;;;;;;;19.67;52.62;100432.03;5167080;27;20284;-78
2022/05/10 07:29:17;;;;;;;5.07;2.87;;;;;;;19.87;52.14;100429.41;5162374;27;20345;-78
2022/05/10 07:31:43;;;;;;;4.40;2.53;;;;;;;19.91;51.61;100432.41;5160912;27;20088;-77
2022/05/10 07:34:09;;;;;;;4.40;2.38;;;;;;;20.15;51.26;100424.56;5160643;27;20034;-78
2022/05/10 07:36:35;;;;;;;5.65;2.38;;;;;;;19.96;51.66;100427.78;5161081;27;20480;-78
2022/05/10 07:39:06;;;;;;;6.38;2.60;;;;;;;20.32;50.46;100420.53;5159337;27;20465;-75
2022/05/10 07:41:31;;;;;;;4.20;2.15;;;;;;;20.44;50.51;100421.13;5159102;27;20449;-77
2022/05/10 07:43:57;;;;;;;6.57;2.17;;;;;;;20.34;50.89;100420.28;5159892;27;20031;-77
2022/05/10 07:46:23;;;;;;;;;;;;;;;20.35;50.30;100420.00;5160561;27;20365;-74
2022/05/10 07:48:48;;;;;;;5.82;2.40;;;;;;;20.71;49.73;100420.09;5138776;27;19994;-76
2022/05/10 07:51:13;;;;;;;;;;;;;;;20.80;49.64;100418.47;5158058;27;20023;-76
2022/05/10 07:53:41;;;;;;;5.07;2.53;;;;;;;20.96;48.95;100417.38;5157457;27;19976;-77
2022/05/10 07:56:06;;;;;;;5.65;2.50;;;;;;;20.94;49.64;100411.38;5139912;27;20435;-77
2022/05/10 07:58:32;;;;;;;5.75;2.35;;;;;;;20.97;48.91;100413.53;5158726;27;20039;-78
2022/05/10 08:00:59;;;;;;;4.45;2.03;;;;;;;20.97;49.20;100415.44;5158040;27;20037;-78
2022/05/10 08:03:26;;;;;;;4.30;2.30;;;;;;;21.06;48.84;100411.09;5157661;27;20497;-78
2022/05/10 08:05:56;;;;;;;5.97;2.60;;;;;;;21.28;48.88;100410.84;5159278;27;20057;-78
2022/05/10 08:08:24;;;;;;;5.93;2.42;;;;;;;21.35;48.74;100409.44;5159031;27;20034;-78
2022/05/10 08:10:50;;;;;;;5.00;2.13;;;;;;;21.59;47.61;100415.16;5158404;27;20027;-76
2022/05/10 08:13:18;;;;;;;5.03;2.53;;;;;;;21.62;47.58;100420.09;5157765;27;20113;-75
2022/05/10 08:15:45;;;;;;;4.68;2.38;;;;;;;21.73;47.22;100405.25;5157831;27;20023;-79
2022/05/10 08:18:11;;;;;;;4.28;2.13;;;;;;;21.77;47.51;100400.84;5139753;27;20419;-77
2022/05/10 08:20:38;;;;;;;6.38;2.28;;;;;;;22.14;46.12;100400.44;5157393;27;20030;-76
2022/05/10 08:23:06;;;;;;;4.03;1.95;;;;;;;21.91;46.32;100402.97;5158283;27;20034;-77
2022/05/10 08:25:31;;;;;;;4.88;2.20;;;;;;;22.05;46.78;100396.63;5158532;27;20019;-77
2022/05/10 08:27:57;;;;;;;4.35;2.08;;;;;;;22.37;44.86;100398.16;5158312;27;20031;-77
2022/05/10 08:30:22;;;;;;;5.37;2.20;;;;;;;22.16;44.88;100409.22;5158400;27;20058;-77
2022/05/10 08:32:47;;;;;;;5.72;2.20;;;;;;;22.22;45.57;100406.44;5158560;27;20278;-77
2022/05/10 08:35:12;;;;;;;6.43;2.90;;;;;;;22.24;45.82;100401.50;5159679;27;20034;-78
2022/05/10 08:37:38;;;;;;;5.75;2.10;;;;;;;22.33;45.49;100392.41;5159102;27;20115;-78
2022/05/10 08:40:12;;;;;;;3.55;1.90;;;;;;;22.63;44.65;100387.81;5159177;27;20027;-78
2022/05/10 08:42:47;;;;;;;5.40;2.03;;;;;;;22.72;44.39;100400.66;5158837;27;20025;-78
2022/05/10 08:45:13;;;;;;;4.68;2.15;;;;;;;22.88;44.12;100398.66;5159612;27;20520;-79
2022/05/10 08:47:41;;;;;;;5.05;2.15;;;;;;;22.99;44.11;100396.63;5159077;27;20033;-79
2022/05/10 08:50:09;;;;;;;4.60;2.40;;;;;;;23.24;42.80;100385.41;5158882;27;20484;-77
2022/05/10 08:52:39;;;;;;;4.45;2.25;;;;;;;23.05;43.60;100390.81;5138253;27;20465;-76
2022/05/10 08:55:08;;;;;;;5.55;2.33;;;;;;;23.26;43.31;100382.38;5156958;27;20441;-77
2022/05/10 08:57:49;;;;;;;4.38;2.35;;;;;;;23.01;43.36;100389.72;5157375;27;20356;-77
2022/05/10 09:00:33;;;;;;;5.93;2.35;;;;;;;23.17;43.86;100391.22;5157081;27;20027;-78
2022/05/10 09:03:00;;;;;;;5.47;1.95;;;;;;;23.28;43.57;100380.16;5156482;27;20495;-77
2022/05/10 09:05:28;;;;;;;5.75;2.47;;;;;;;23.15;43.73;100381.63;5156528;27;20034;-77
2022/05/10 09:08:21;;;;;;;3.92;2.08;;;;;;;23.45;43.82;100381.34;5156890;27;20079;-77
2022/05/10 09:10:51;;;;;;;4.45;1.70;;;;;;;23.27;43.99;100373.03;5157084;27;20034;-77
2022/05/10 09:13:19;;;;;;;5.40;2.20;;;;;;;23.42;43.52;100370.09;5157031;27;20114;-77
2022/05/10 09:15:50;;;;;;;5.18;2.22;;;;;;;23.45;43.15;100375.03;5157585;27;20026;-77
2022/05/10 09:18:25;;;;;;;4.20;2.20;;;;;;;23.42;42.82;100372.84;5156924;27;20137;-77
2022/05/10 09:21:03;;;;;;;4.07;2.35;;;;;;;23.41;43.26;100372.03;5156756;27;20034;-78
2022/05/10 09:23:56;;;;;;;3.50;1.85;;;;;;;23.28;42.60;100369.16;5157113;27;20033;-76
2022/05/10 09:26:24;;;;;;;3.50;1.90;;;;;;;23.50;42.46;100366.69;5139351;27;20035;-77
2022/05/10 09:29:14;;;;;;;4.35;2.08;;;;;;;23.75;41.76;100363.69;5157436;27;20107;-78
2022/05/10 09:37:16;;;;;;;3.53;1.80;;;;;;;23.32;42.63;100362.75;5156533;27;20564;-77
2022/05/10 09:40:01;;;;;;;5.05;2.60;;;;;;;23.28;42.21;100358.16;5156469;27;20029;-76
2022/05/10 09:42:33;;;;;;;4.00;1.98;;;;;;;23.31;42.74;100350.13;5156548;27;20445;-77
2022/05/10 09:45:14;;;;;;;4.10;2.00;;;;;;;23.46;43.49;100351.91;5156248;27;20465;-77
2022/05/10 09:47:54;;;;;;;6.70;2.33;;;;;;;23.74;43.12;100356.56;5137767;27;20026;-78
2022/05/10 09:50:25;;;;;;;5.50;2.35;;;;;;;23.66;42.05;100348.94;5157824;27;20038;-78
2022/05/10 09:53:26;;;;;;;5.15;2.47;;;;;;;23.70;42.31;100343.69;5140547;27;20460;-78
2022/05/10 09:56:05;;;;;;;4.50;2.53;;;;;;;24.08;41.45;100348.13;5155883;27;20071;-78
2022/05/10 09:58:35;;;;;;;3.88;2.08;;;;;;;24.28;41.62;100349.00;5159734;27;20057;-78
2022/05/10 10:01:04;;;;;;;5.22;2.22;;;;;;;24.47;41.46;100339.63;5157285;27;20023;-77
2022/05/10 10:03:39;;;;;;;4.53;2.30;;;;;;;24.48;41.39;100343.19;5158891;27;20037;-78
2022/05/10 10:06:19;;;;;;;4.05;2.03;;;;;;;24.69;40.35;100346.44;5159641;27;20030;-78
2022/05/10 10:08:53;;;;;;;4.70;2.05;;;;;;;24.60;40.02;100338.03;5143449;27;20063;-77
2022/05/10 10:11:21;;;;;;;4.78;2.40;;;;;;;24.11;39.84;100339.28;5141715;27;20102;-80
2022/05/10 10:13:52;;;;;;;6.30;2.00;;;;;;;24.00;40.59;100346.06;5140434;27;20034;-80
2022/05/10 10:16:27;;;;;;;6.97;2.15;;;;;;;24.13;40.00;100339.81;5140310;27;20075;-79
2022/05/10 10:18:58;;;;;;;4.95;2.30;;;;;;;24.28;40.45;100347.06;5142994;27;20041;-80
2022/05/10 10:21:33;;;;;;;3.97;2.05;;;;;;;24.31;39.64;100332.69;5157370;27;20030;-78
2022/05/10 10:23:59;;;;;;;3.83;1.80;;;;;;;24.18;39.97;100327.91;5138151;27;20055;-77
2022/05/10 10:26:31;;;;;;;5.45;2.35;;;;;;;24.17;40.49;100327.09;5160150;27;20079;-80
2022/05/10 10:29:07;;;;;;;3.90;1.90;;;;;;;24.23;40.14;100325.91;5160680;27;20071;-78
2022/05/10 10:31:43;;;;;;;5.83;2.40;;;;;;;24.13;40.47;100320.53;5163319;27;20585;-77
2022/05/10 10:34:22;;;;;;;4.22;1.98;;;;;;;23.86;40.67;100320.34;5143154;27;20666;-78
2022/05/10 10:36:58;;;;;;;3.65;1.90;;;;;;;23.89;40.72;100317.84;5141101;27;20027;-78
2022/05/10 10:39:52;;;;;;;5.97;2.33;;;;;;;24.05;39.45;100320.38;5158321;27;20428;-79
2022/05/10 10:42:57;;;;;;;3.03;1.55;;;;;;;24.01;39.22;100317.38;5157502;27;20102;-80
2022/05/10 10:45:34;;;;;;;3.92;1.90;;;;;;;23.99;38.71;100316.06;5043656;27;20051;-79
2022/05/10 10:48:27;;;;;;;4.15;1.95;;;;;;;23.97;38.85;100310.88;5139170;27;20043;-77
2022/05/10 10:50:53;;;;;;;3.70;1.90;;;;;;;23.74;39.46;100304.28;5159853;27;20026;-78
2022/05/10 10:53:24;;;;;;;3.17;1.45;;;;;;;23.98;39.00;100304.25;5160170;27;20141;-79
2022/05/10 10:55:57;;;;;;;3.78;1.60;;;;;;;24.05;38.90;100301.09;5162241;27;20027;-79
2022/05/10 10:58:49;;;;;;;3.65;1.60;;;;;;;23.96;39.13;100294.66;5142830;27;20098;-80
2022/05/10 11:01:32;;;;;;;3.83;1.70;;;;;;;24.05;38.82;100290.09;5158840;27;20433;-80
2022/05/10 11:04:28;;;;;;;4.85;1.90;;;;;;;24.12;38.68;100274.03;5159862;27;20027;-78
2022/05/10 11:06:54;;;;;;;3.40;1.60;;;;;;;24.09;37.82;100274.63;5157057;27;20504;-77
2022/05/10 11:09:37;;;;;;;3.80;1.67;;;;;;;24.12;38.51;100279.53;5161380;27;20054;-79
2022/05/10 11:12:26;;;;;;;3.28;1.60;;;;;;;23.88;39.12;100283.19;5162544;27;20035;-78
2022/05/10 11:15:31;;;;;;;3.80;1.80;;;;;;;23.92;38.64;100280.66;5162299;27;20483;-79
2022/05/10 11:18:15;;;;;;;3.42;1.60;;;;;;;23.99;38.83;100283.03;5162660;27;20022;-78
2022/05/10 11:20:52;;;;;;;6.60;2.67;;;;;;;23.85;38.61;100285.69;5141655;27;20026;-78
2022/05/10 11:23:56;;;;;;;3.78;1.73;;;;;;;23.98;38.36;100265.72;5161593;27;20046;-82
2022/05/10 11:27:06;;;;;;;3.75;1.73;;;;;;;24.24;37.38;100279.94;5140961;27;20049;-79
2022/05/10 11:29:35;;;;;;;3.30;1.50;;;;;;;24.35;36.82;100277.84;5142630;27;20069;-78
2022/05/10 11:32:57;;;;;;;3.60;1.73;;;;;;;24.37;37.29;100281.91;5160067;27;20027;-78
2022/05/10 11:35:51;;;;;;;3.85;1.70;;;;;;;24.54;37.29;100286.91;5056088;28;20488;-82
2022/05/10 11:38:34;;;;;;;3.72;1.80;;;;;;;24.40;37.89;100275.81;5038747;28;20076;-79
2022/05/10 11:41:27;;;;;;;4.55;1.55;;;;;;;24.53;37.79;100285.28;5150015;27;20503;-78
2022/05/10 11:44:29;;;;;;;4.85;1.95;;;;;;;24.46;37.07;100273.81;5140151;27;20030;-79
2022/05/10 11:47:17;;;;;;;3.90;2.13;;;;;;;24.35;36.55;100267.66;5142361;27;20034;-79
2022/05/10 11:49:45;;;;;;;3.50;1.60;;;;;;;24.50;36.92;100261.91;5141788;27;20061;-80
2022/05/10 11:52:18;;;;;;;3.10;1.45;;;;;;;24.45;37.34;100264.72;5159607;27;20060;-79
2022/05/10 11:54:59;;;;;;;4.30;1.80;;;;;;;24.71;36.66;100250.53;5161776;27;20026;-79
2022/05/10 11:57:27;;;;;;;4.43;1.80;;;;;;;24.75;36.04;100251.53;5162501;27;20049;-80
2022/05/10 11:59:53;;;;;;;3.60;2.03;;;;;;;25.04;36.11;100235.59;5145530;27;20095;-79
2022/05/10 12:02:28;;;;;;;4.32;1.83;;;;;;;25.15;35.45;100241.72;5143826;27;20032;-78
2022/05/10 12:05:14;;;;;;;12.75;2.28;;;;;;;25.27;35.26;100251.09;5162393;27;20035;-79
2022/05/10 12:07:45;;;;;;;3.63;1.58;;;;;;;25.40;35.23;100241.22;5144410;27;20179;-80
2022/05/10 12:10:22;;;;;;;3.95;1.75;;;;;;;25.39;35.48;100236.81;5163033;27;20030;-79
2022/05/10 12:12:47;;;;;;;3.53;1.73;;;;;;;25.51;35.14;100247.31;5164641;27;20045;-80